sensor_id;sensor_type;location;lat;lon;timestamp;pressure;altitude;pressure_sealevel;temperature;humidity
74343;BME280;62767;50.300;8.070;2023-12-20T00:01:41;99837.09;;;16.95;43.84
74343;BME280;62767;50.300;8.070;2023-12-20T00:04:07;99843.38;;;16.82;43.91
74343;BME280;62767;50.300;8.070;2023-12-20T00:06:33;99851.94;;;16.75;43.75
74343;BME280;62767;50.300;8.070;2023-12-20T00:08:59;99835.97;;;16.67;44.08
74343;BME280;62767;50.300;8.070;2023-12-20T00:11:25;99828.63;;;16.49;44.56
74343;BME280;62767;50.300;8.070;2023-12-20T00:13:51;99831.22;;;16.40;44.41
74343;BME280;62767;50.300;8.070;2023-12-20T00:16:18;99837.91;;;16.33;44.90
74343;BME280;62767;50.300;8.070;2023-12-20T00:18:44;99826.97;;;16.28;45.07
74343;BME280;62767;50.300;8.070;2023-12-20T00:21:10;99828.03;;;16.25;45.08
74343;BME280;62767;50.300;8.070;2023-12-20T00:23:36;99830.81;;;16.24;44.91
74343;BME280;62767;50.300;8.070;2023-12-20T00:26:02;99828.50;;;16.30;45.18
74343;BME280;62767;50.300;8.070;2023-12-20T00:28:29;99833.69;;;16.41;45.04
74343;BME280;62767;50.300;8.070;2023-12-20T00:30:55;99826.41;;;16.45;44.72
74343;BME280;62767;50.300;8.070;2023-12-20T00:33:21;99831.47;;;16.58;44.36
74343;BME280;62767;50.300;8.070;2023-12-20T00:35:47;99824.66;;;16.76;44.21
74343;BME280;62767;50.300;8.070;2023-12-20T00:38:13;99825.97;;;17.12;43.50
74343;BME280;62767;50.300;8.070;2023-12-20T00:40:39;99825.50;;;17.27;43.18
74343;BME280;62767;50.300;8.070;2023-12-20T00:43:05;99836.47;;;17.42;42.86
74343;BME280;62767;50.300;8.070;2023-12-20T00:45:31;99821.13;;;17.57;42.41
74343;BME280;62767;50.300;8.070;2023-12-20T00:47:57;99818.41;;;17.68;41.82
74343;BME280;62767;50.300;8.070;2023-12-20T00:50:23;99818.56;;;17.76;41.63
74343;BME280;62767;50.300;8.070;2023-12-20T00:52:49;99809.16;;;17.83;41.46
74343;BME280;62767;50.300;8.070;2023-12-20T00:55:15;99801.25;;;17.93;41.32
74343;BME280;62767;50.300;8.070;2023-12-20T00:57:41;99795.88;;;17.94;41.46
74343;BME280;62767;50.300;8.070;2023-12-20T01:00:07;99798.91;;;17.90;41.30
74343;BME280;62767;50.300;8.070;2023-12-20T01:02:35;99800.56;;;17.81;41.44
74343;BME280;62767;50.300;8.070;2023-12-20T01:05:01;99795.28;;;17.72;41.76
74343;BME280;62767;50.300;8.070;2023-12-20T01:07:28;99802.16;;;17.53;42.28
74343;BME280;62767;50.300;8.070;2023-12-20T01:09:54;99801.72;;;17.39;42.35
74343;BME280;62767;50.300;8.070;2023-12-20T01:12:20;99800.44;;;17.33;43.20
74343;BME280;62767;50.300;8.070;2023-12-20T01:14:46;99787.22;;;17.14;43.01
74343;BME280;62767;50.300;8.070;2023-12-20T01:17:12;99792.19;;;17.07;43.15
74343;BME280;62767;50.300;8.070;2023-12-20T01:19:38;99797.53;;;16.96;43.39
74343;BME280;62767;50.300;8.070;2023-12-20T01:22:04;99805.09;;;16.89;43.76
74343;BME280;62767;50.300;8.070;2023-12-20T01:24:31;99797.88;;;16.82;43.88
74343;BME280;62767;50.300;8.070;2023-12-20T01:26:57;99793.69;;;16.70;43.76
74343;BME280;62767;50.300;8.070;2023-12-20T01:29:23;99811.16;;;16.60;44.22
74343;BME280;62767;50.300;8.070;2023-12-20T01:31:49;99815.63;;;16.48;44.55
74343;BME280;62767;50.300;8.070;2023-12-20T01:34:16;99812.31;;;16.46;45.10
74343;BME280;62767;50.300;8.070;2023-12-20T01:36:42;99794.59;;;16.48;45.37
74343;BME280;62767;50.300;8.070;2023-12-20T01:39:08;99816.53;;;16.37;44.97
74343;BME280;62767;50.300;8.070;2023-12-20T01:41:34;99819.41;;;16.34;45.08
74343;BME280;62767;50.300;8.070;2023-12-20T01:44:00;99810.50;;;16.26;45.12
74343;BME280;62767;50.300;8.070;2023-12-20T01:46:26;99798.75;;;16.30;45.03
74343;BME280;62767;50.300;8.070;2023-12-20T01:48:53;99793.59;;;16.39;44.83
74343;BME280;62767;50.300;8.070;2023-12-20T01:51:20;99806.34;;;16.44;45.00
74343;BME280;62767;50.300;8.070;2023-12-20T01:53:46;99810.69;;;16.55;44.70
74343;BME280;62767;50.300;8.070;2023-12-20T01:56:13;99808.91;;;16.76;44.29
74343;BME280;62767;50.300;8.070;2023-12-20T01:58:44;99799.53;;;17.04;43.52
74343;BME280;62767;50.300;8.070;2023-12-20T02:01:11;99791.44;;;17.26;43.11
74343;BME280;62767;50.300;8.070;2023-12-20T02:03:38;99795.34;;;17.41;42.78
74343;BME280;62767;50.300;8.070;2023-12-20T02:06:05;99789.00;;;17.53;42.48
74343;BME280;62767;50.300;8.070;2023-12-20T02:08:31;99789.03;;;17.63;42.11
74343;BME280;62767;50.300;8.070;2023-12-20T02:10:57;99797.81;;;17.73;41.90
74343;BME280;62767;50.300;8.070;2023-12-20T02:13:23;99793.63;;;17.80;41.62
74343;BME280;62767;50.300;8.070;2023-12-20T02:15:50;99796.28;;;17.90;41.30
74343;BME280;62767;50.300;8.070;2023-12-20T02:18:16;99791.44;;;17.95;41.53
74343;BME280;62767;50.300;8.070;2023-12-20T02:20:42;99795.31;;;17.91;41.47
74343;BME280;62767;50.300;8.070;2023-12-20T02:23:08;99795.16;;;17.83;41.75
74343;BME280;62767;50.300;8.070;2023-12-20T02:25:34;99796.13;;;17.72;41.80
74343;BME280;62767;50.300;8.070;2023-12-20T02:28:01;99798.28;;;17.57;42.33
74343;BME280;62767;50.300;8.070;2023-12-20T02:30:28;99810.16;;;17.42;42.72
74343;BME280;62767;50.300;8.070;2023-12-20T02:32:54;99810.38;;;17.29;42.92
74343;BME280;62767;50.300;8.070;2023-12-20T02:35:21;99815.88;;;17.17;43.49
74343;BME280;62767;50.300;8.070;2023-12-20T02:37:47;99816.94;;;17.05;43.50
74343;BME280;62767;50.300;8.070;2023-12-20T02:40:13;99813.88;;;17.00;43.86
74343;BME280;62767;50.300;8.070;2023-12-20T02:42:39;99814.53;;;16.92;43.74
74343;BME280;62767;50.300;8.070;2023-12-20T02:45:06;99823.91;;;16.85;44.03
74343;BME280;62767;50.300;8.070;2023-12-20T02:47:32;99820.97;;;16.78;44.09
74343;BME280;62767;50.300;8.070;2023-12-20T02:49:58;99824.22;;;16.71;44.44
74343;BME280;62767;50.300;8.070;2023-12-20T02:52:24;99820.47;;;16.64;44.56
74343;BME280;62767;50.300;8.070;2023-12-20T02:54:51;99820.38;;;16.54;45.15
74343;BME280;62767;50.300;8.070;2023-12-20T02:57:17;99832.72;;;16.42;45.10
74343;BME280;62767;50.300;8.070;2023-12-20T02:59:43;99832.16;;;16.39;45.01
74343;BME280;62767;50.300;8.070;2023-12-20T03:02:09;99829.66;;;16.37;45.28
74343;BME280;62767;50.300;8.070;2023-12-20T03:04:35;99836.97;;;16.34;45.21
74343;BME280;62767;50.300;8.070;2023-12-20T03:07:01;99838.25;;;16.39;45.11
74343;BME280;62767;50.300;8.070;2023-12-20T03:09:27;99837.88;;;16.44;44.99
74343;BME280;62767;50.300;8.070;2023-12-20T03:11:53;99832.94;;;16.51;44.85
74343;BME280;62767;50.300;8.070;2023-12-20T03:14:19;99838.16;;;16.62;44.66
74343;BME280;62767;50.300;8.070;2023-12-20T03:16:51;99850.25;;;16.95;44.26
74343;BME280;62767;50.300;8.070;2023-12-20T03:19:18;99853.50;;;17.08;43.78
74343;BME280;62767;50.300;8.070;2023-12-20T03:21:45;99850.88;;;17.38;43.16
74343;BME280;62767;50.300;8.070;2023-12-20T03:24:11;99853.09;;;17.52;42.52
74343;BME280;62767;50.300;8.070;2023-12-20T03:26:37;99859.13;;;17.64;42.41
74343;BME280;62767;50.300;8.070;2023-12-20T03:29:03;99854.59;;;17.76;42.10
74343;BME280;62767;50.300;8.070;2023-12-20T03:31:29;99852.66;;;17.87;41.73
74343;BME280;62767;50.300;8.070;2023-12-20T03:33:55;99864.31;;;17.94;41.73
74343;BME280;62767;50.300;8.070;2023-12-20T03:36:21;99858.38;;;18.02;41.51
74343;BME280;62767;50.300;8.070;2023-12-20T03:38:47;99867.94;;;18.03;41.39
74343;BME280;62767;50.300;8.070;2023-12-20T03:41:14;99864.34;;;18.04;41.60
74343;BME280;62767;50.300;8.070;2023-12-20T03:43:40;99869.59;;;17.94;41.42
74343;BME280;62767;50.300;8.070;2023-12-20T03:46:08;99866.78;;;17.86;42.07
74343;BME280;62767;50.300;8.070;2023-12-20T03:48:34;99862.06;;;17.80;42.21
74343;BME280;62767;50.300;8.070;2023-12-20T03:51:00;99865.22;;;17.64;42.38
74343;BME280;62767;50.300;8.070;2023-12-20T03:53:26;99874.38;;;17.70;43.18
74343;BME280;62767;50.300;8.070;2023-12-20T03:55:52;99875.03;;;19.90;39.34
74343;BME280;62767;50.300;8.070;2023-12-20T03:58:18;99877.25;;;20.30;35.23
74343;BME280;62767;50.300;8.070;2023-12-20T04:00:44;99882.41;;;20.32;37.49
74343;BME280;62767;50.300;8.070;2023-12-20T04:03:11;99876.19;;;20.23;37.34
74343;BME280;62767;50.300;8.070;2023-12-20T04:05:40;99894.34;;;19.91;38.08
74343;BME280;62767;50.300;8.070;2023-12-20T04:08:07;99912.69;;;19.18;40.68
74343;BME280;62767;50.300;8.070;2023-12-20T04:10:33;99918.84;;;19.56;35.79
74343;BME280;62767;50.300;8.070;2023-12-20T04:12:59;99924.56;;;19.42;34.70
74343;BME280;62767;50.300;8.070;2023-12-20T04:15:25;99933.81;;;18.32;37.29
74343;BME280;62767;50.300;8.070;2023-12-20T04:17:51;99917.75;;;18.54;35.88
74343;BME280;62767;50.300;8.070;2023-12-20T04:20:17;99928.19;;;17.87;40.96
74343;BME280;62767;50.300;8.070;2023-12-20T04:22:43;99936.28;;;17.64;38.01
74343;BME280;62767;50.300;8.070;2023-12-20T04:25:09;99933.16;;;17.80;39.02
74343;BME280;62767;50.300;8.070;2023-12-20T04:27:35;99921.28;;;17.55;40.44
74343;BME280;62767;50.300;8.070;2023-12-20T04:30:02;99916.78;;;17.46;40.94
74343;BME280;62767;50.300;8.070;2023-12-20T04:32:28;99912.34;;;17.37;41.34
74343;BME280;62767;50.300;8.070;2023-12-20T04:34:54;99913.47;;;17.44;40.06
74343;BME280;62767;50.300;8.070;2023-12-20T04:37:20;99910.31;;;17.50;41.20
74343;BME280;62767;50.300;8.070;2023-12-20T04:39:46;99920.50;;;17.64;40.46
74343;BME280;62767;50.300;8.070;2023-12-20T04:42:12;99924.88;;;17.54;41.21
74343;BME280;62767;50.300;8.070;2023-12-20T04:44:38;99932.19;;;17.51;41.50
74343;BME280;62767;50.300;8.070;2023-12-20T04:47:04;99941.00;;;17.61;41.77
74343;BME280;62767;50.300;8.070;2023-12-20T04:49:30;99937.97;;;17.65;42.33
74343;BME280;62767;50.300;8.070;2023-12-20T04:51:56;99931.88;;;17.75;42.87
74343;BME280;62767;50.300;8.070;2023-12-20T04:54:22;99939.25;;;17.81;42.87
74343;BME280;62767;50.300;8.070;2023-12-20T04:56:49;99927.78;;;17.91;42.44
74343;BME280;62767;50.300;8.070;2023-12-20T04:59:15;99930.03;;;17.96;42.17
74343;BME280;62767;50.300;8.070;2023-12-20T05:01:41;99934.47;;;18.05;42.36
74343;BME280;62767;50.300;8.070;2023-12-20T05:04:07;99933.22;;;18.09;41.41
74343;BME280;62767;50.300;8.070;2023-12-20T05:06:33;99917.88;;;18.14;42.56
74343;BME280;62767;50.300;8.070;2023-12-20T05:08:59;99928.13;;;18.07;42.79
74343;BME280;62767;50.300;8.070;2023-12-20T05:11:25;99933.94;;;18.01;42.88
74343;BME280;62767;50.300;8.070;2023-12-20T05:13:51;99934.06;;;18.00;43.11
74343;BME280;62767;50.300;8.070;2023-12-20T05:16:17;99939.56;;;17.97;43.88
74343;BME280;62767;50.300;8.070;2023-12-20T05:18:45;99939.56;;;17.97;43.93
74343;BME280;62767;50.300;8.070;2023-12-20T05:21:11;99938.69;;;17.67;43.24
74343;BME280;62767;50.300;8.070;2023-12-20T05:23:37;99944.78;;;17.47;44.68
74343;BME280;62767;50.300;8.070;2023-12-20T05:26:03;99951.47;;;17.30;44.57
74343;BME280;62767;50.300;8.070;2023-12-20T05:28:29;99949.16;;;17.16;45.10
74343;BME280;62767;50.300;8.070;2023-12-20T05:30:56;99944.97;;;17.04;45.65
74343;BME280;62767;50.300;8.070;2023-12-20T05:33:22;99936.66;;;16.88;45.62
74343;BME280;62767;50.300;8.070;2023-12-20T05:35:48;99946.34;;;16.87;46.67
74343;BME280;62767;50.300;8.070;2023-12-20T05:38:14;99945.91;;;16.82;46.66
74343;BME280;62767;50.300;8.070;2023-12-20T05:40:40;99943.53;;;16.79;46.67
74343;BME280;62767;50.300;8.070;2023-12-20T05:43:06;99950.13;;;16.74;46.29
74343;BME280;62767;50.300;8.070;2023-12-20T05:45:32;99947.63;;;16.72;45.99
74343;BME280;62767;50.300;8.070;2023-12-20T05:47:58;99954.66;;;16.72;46.11
74343;BME280;62767;50.300;8.070;2023-12-20T05:50:24;99954.78;;;16.70;45.74
74343;BME280;62767;50.300;8.070;2023-12-20T05:52:51;99944.53;;;16.67;45.69
74343;BME280;62767;50.300;8.070;2023-12-20T05:55:17;99933.75;;;16.70;46.12
74343;BME280;62767;50.300;8.070;2023-12-20T05:57:43;99943.53;;;16.79;45.89
74343;BME280;62767;50.300;8.070;2023-12-20T06:00:09;99934.75;;;16.90;45.72
74343;BME280;62767;50.300;8.070;2023-12-20T06:02:40;99935.72;;;17.10;44.89
74343;BME280;62767;50.300;8.070;2023-12-20T06:05:06;99929.59;;;17.30;44.79
74343;BME280;62767;50.300;8.070;2023-12-20T06:07:32;99922.63;;;17.50;43.30
74343;BME280;62767;50.300;8.070;2023-12-20T06:09:58;99926.03;;;17.61;43.54
74343;BME280;62767;50.300;8.070;2023-12-20T06:12:24;99936.06;;;17.77;42.92
74343;BME280;62767;50.300;8.070;2023-12-20T06:14:52;99948.16;;;17.89;42.65
74343;BME280;62767;50.300;8.070;2023-12-20T06:17:18;99953.84;;;17.94;42.33
74343;BME280;62767;50.300;8.070;2023-12-20T06:19:45;99941.94;;;18.00;41.99
74343;BME280;62767;50.300;8.070;2023-12-20T06:22:15;99942.38;;;18.05;41.93
74343;BME280;62767;50.300;8.070;2023-12-20T06:24:41;99955.53;;;17.95;42.52
74343;BME280;62767;50.300;8.070;2023-12-20T06:27:07;99951.88;;;17.87;42.38
74343;BME280;62767;50.300;8.070;2023-12-20T06:29:33;99961.69;;;17.75;43.08
74343;BME280;62767;50.300;8.070;2023-12-20T06:32:00;99961.59;;;17.56;43.54
74343;BME280;62767;50.300;8.070;2023-12-20T06:34:26;99955.63;;;17.54;43.58
74343;BME280;62767;50.300;8.070;2023-12-20T06:36:52;99967.13;;;17.32;43.31
74343;BME280;62767;50.300;8.070;2023-12-20T06:39:18;99974.00;;;17.23;43.99
74343;BME280;62767;50.300;8.070;2023-12-20T06:41:44;99969.56;;;17.24;44.58
74343;BME280;62767;50.300;8.070;2023-12-20T06:44:10;99970.75;;;17.10;44.11
74343;BME280;62767;50.300;8.070;2023-12-20T06:46:36;99967.47;;;16.97;44.28
74343;BME280;62767;50.300;8.070;2023-12-20T06:49:02;99967.13;;;16.91;44.55
74343;BME280;62767;50.300;8.070;2023-12-20T06:51:28;99969.31;;;16.85;44.94
74343;BME280;62767;50.300;8.070;2023-12-20T06:53:56;99959.31;;;16.79;45.29
74343;BME280;62767;50.300;8.070;2023-12-20T06:56:22;99961.88;;;16.70;45.36
74343;BME280;62767;50.300;8.070;2023-12-20T06:58:49;99956.72;;;16.68;45.37
74343;BME280;62767;50.300;8.070;2023-12-20T07:01:15;99952.44;;;16.67;45.39
74343;BME280;62767;50.300;8.070;2023-12-20T07:03:42;99952.94;;;16.61;45.04
74343;BME280;62767;50.300;8.070;2023-12-20T07:06:08;99959.38;;;16.57;45.52
74343;BME280;62767;50.300;8.070;2023-12-20T07:08:34;99963.41;;;16.72;45.64
74343;BME280;62767;50.300;8.070;2023-12-20T07:11:00;99966.59;;;16.76;45.26
74343;BME280;62767;50.300;8.070;2023-12-20T07:13:26;99967.31;;;16.78;45.16
74343;BME280;62767;50.300;8.070;2023-12-20T07:15:52;99970.47;;;16.93;45.17
74343;BME280;62767;50.300;8.070;2023-12-20T07:18:19;99962.97;;;17.09;44.56
74343;BME280;62767;50.300;8.070;2023-12-20T07:20:45;99969.38;;;17.37;44.09
74343;BME280;62767;50.300;8.070;2023-12-20T07:23:11;99957.41;;;17.53;43.70
74343;BME280;62767;50.300;8.070;2023-12-20T07:25:37;99955.28;;;17.68;43.16
74343;BME280;62767;50.300;8.070;2023-12-20T07:28:03;99958.78;;;17.78;43.00
74343;BME280;62767;50.300;8.070;2023-12-20T07:30:30;99969.91;;;17.91;42.22
74343;BME280;62767;50.300;8.070;2023-12-20T07:32:56;99968.28;;;18.00;42.50
74343;BME280;62767;50.300;8.070;2023-12-20T07:35:23;99979.00;;;18.18;42.06
74343;BME280;62767;50.300;8.070;2023-12-20T07:37:49;99980.41;;;18.22;41.97
74343;BME280;62767;50.300;8.070;2023-12-20T07:40:15;99992.31;;;18.16;41.64
74343;BME280;62767;50.300;8.070;2023-12-20T07:42:43;99993.31;;;18.25;42.04
74343;BME280;62767;50.300;8.070;2023-12-20T07:45:09;99987.22;;;18.24;42.22
74343;BME280;62767;50.300;8.070;2023-12-20T07:47:36;99983.31;;;18.19;42.33
74343;BME280;62767;50.300;8.070;2023-12-20T07:50:02;99992.41;;;18.05;42.23
74343;BME280;62767;50.300;8.070;2023-12-20T07:52:29;99995.13;;;17.84;42.91
74343;BME280;62767;50.300;8.070;2023-12-20T07:54:55;100000.84;;;17.68;42.99
74343;BME280;62767;50.300;8.070;2023-12-20T07:57:21;100003.22;;;17.51;43.38
74343;BME280;62767;50.300;8.070;2023-12-20T07:59:47;100004.97;;;17.41;43.68
74343;BME280;62767;50.300;8.070;2023-12-20T08:02:13;100002.03;;;17.34;43.40
74343;BME280;62767;50.300;8.070;2023-12-20T08:04:39;100006.16;;;17.27;44.02
74343;BME280;62767;50.300;8.070;2023-12-20T08:07:07;99997.66;;;17.23;44.41
74343;BME280;62767;50.300;8.070;2023-12-20T08:09:33;100004.66;;;17.13;44.02
74343;BME280;62767;50.300;8.070;2023-12-20T08:12:00;100007.84;;;16.96;43.85
74343;BME280;62767;50.300;8.070;2023-12-20T08:14:26;100007.59;;;16.99;45.01
74343;BME280;62767;50.300;8.070;2023-12-20T08:16:52;100007.41;;;16.91;44.67
74343;BME280;62767;50.300;8.070;2023-12-20T08:19:18;100012.06;;;16.87;45.10
74343;BME280;62767;50.300;8.070;2023-12-20T08:21:44;100011.59;;;16.82;45.25
74343;BME280;62767;50.300;8.070;2023-12-20T08:24:10;100002.31;;;16.78;45.31
74343;BME280;62767;50.300;8.070;2023-12-20T08:26:36;100012.06;;;16.87;45.05
74343;BME280;62767;50.300;8.070;2023-12-20T08:29:02;100010.75;;;16.93;44.62
74343;BME280;62767;50.300;8.070;2023-12-20T08:31:28;100021.47;;;17.01;44.67
74343;BME280;62767;50.300;8.070;2023-12-20T08:33:55;100025.44;;;17.16;44.21
74343;BME280;62767;50.300;8.070;2023-12-20T08:36:21;100022.72;;;17.39;43.88
74343;BME280;62767;50.300;8.070;2023-12-20T08:38:50;100028.22;;;17.56;43.52
74343;BME280;62767;50.300;8.070;2023-12-20T08:41:17;100019.75;;;17.74;42.76
74343;BME280;62767;50.300;8.070;2023-12-20T08:43:43;100028.81;;;17.90;42.47
74343;BME280;62767;50.300;8.070;2023-12-20T08:46:09;100022.88;;;17.98;42.37
74343;BME280;62767;50.300;8.070;2023-12-20T08:48:35;100016.56;;;18.10;42.10
74343;BME280;62767;50.300;8.070;2023-12-20T08:51:02;100026.16;;;18.21;41.88
74343;BME280;62767;50.300;8.070;2023-12-20T08:53:28;100011.22;;;18.31;41.77
74343;BME280;62767;50.300;8.070;2023-12-20T08:55:54;100015.25;;;18.35;41.59
74343;BME280;62767;50.300;8.070;2023-12-20T08:58:20;100017.59;;;18.38;41.27
74343;BME280;62767;50.300;8.070;2023-12-20T09:00:46;100014.94;;;18.38;41.04
74343;BME280;62767;50.300;8.070;2023-12-20T09:03:13;100021.34;;;18.35;41.72
74343;BME280;62767;50.300;8.070;2023-12-20T09:05:39;100018.41;;;18.29;41.88
74343;BME280;62767;50.300;8.070;2023-12-20T09:08:05;100021.16;;;18.18;42.10
74343;BME280;62767;50.300;8.070;2023-12-20T09:10:31;100021.66;;;18.02;42.28
74343;BME280;62767;50.300;8.070;2023-12-20T09:12:57;100011.28;;;17.80;42.43
74343;BME280;62767;50.300;8.070;2023-12-20T09:15:26;100007.78;;;17.69;42.85
74343;BME280;62767;50.300;8.070;2023-12-20T09:17:53;100014.84;;;17.69;43.35
74343;BME280;62767;50.300;8.070;2023-12-20T09:20:19;100013.09;;;17.58;43.44
74343;BME280;62767;50.300;8.070;2023-12-20T09:22:45;100004.91;;;17.52;43.29
74343;BME280;62767;50.300;8.070;2023-12-20T09:25:12;100012.47;;;17.45;43.60
74343;BME280;62767;50.300;8.070;2023-12-20T09:27:39;100011.78;;;17.43;43.90
74343;BME280;62767;50.300;8.070;2023-12-20T09:30:06;100015.25;;;17.44;44.00
74343;BME280;62767;50.300;8.070;2023-12-20T09:32:32;100020.94;;;17.28;43.81
74343;BME280;62767;50.300;8.070;2023-12-20T09:34:58;100020.31;;;17.15;43.98
74343;BME280;62767;50.300;8.070;2023-12-20T09:37:27;100027.03;;;17.08;44.16
74343;BME280;62767;50.300;8.070;2023-12-20T09:39:54;100024.09;;;17.01;44.65
74343;BME280;62767;50.300;8.070;2023-12-20T09:42:37;100026.16;;;16.98;43.83
74343;BME280;62767;50.300;8.070;2023-12-20T09:45:08;100018.81;;;17.01;44.45
74343;BME280;62767;50.300;8.070;2023-12-20T09:47:35;100024.97;;;17.11;44.25
74343;BME280;62767;50.300;8.070;2023-12-20T09:50:05;100034.16;;;17.17;43.97
74343;BME280;62767;50.300;8.070;2023-12-20T09:52:32;100042.13;;;17.26;43.99
74343;BME280;62767;50.300;8.070;2023-12-20T09:55:01;100041.25;;;17.37;43.87
74343;BME280;62767;50.300;8.070;2023-12-20T09:57:30;100035.59;;;17.62;43.21
74343;BME280;62767;50.300;8.070;2023-12-20T09:59:56;100034.03;;;17.81;42.59
74343;BME280;62767;50.300;8.070;2023-12-20T10:02:24;100027.72;;;17.93;42.11
74343;BME280;62767;50.300;8.070;2023-12-20T10:04:52;100021.69;;;18.11;41.92
74343;BME280;62767;50.300;8.070;2023-12-20T10:07:18;100014.50;;;18.23;41.69
74343;BME280;62767;50.300;8.070;2023-12-20T10:09:45;100009.97;;;18.35;41.32
74343;BME280;62767;50.300;8.070;2023-12-20T10:12:13;100001.41;;;18.42;41.20
74343;BME280;62767;50.300;8.070;2023-12-20T10:14:39;100005.97;;;18.50;41.18
74343;BME280;62767;50.300;8.070;2023-12-20T10:17:06;100000.44;;;18.53;41.12
74343;BME280;62767;50.300;8.070;2023-12-20T10:19:32;99999.47;;;18.54;40.92
74343;BME280;62767;50.300;8.070;2023-12-20T10:22:04;99989.91;;;18.53;40.91
74343;BME280;62767;50.300;8.070;2023-12-20T10:24:30;99981.81;;;18.45;41.07
74343;BME280;62767;50.300;8.070;2023-12-20T10:27:07;99993.75;;;18.30;41.24
74343;BME280;62767;50.300;8.070;2023-12-20T10:29:34;99984.16;;;18.29;41.76
74343;BME280;62767;50.300;8.070;2023-12-20T10:32:36;99984.38;;;18.06;41.60
74343;BME280;62767;50.300;8.070;2023-12-20T10:35:02;99981.03;;;17.95;42.20
74343;BME280;62767;50.300;8.070;2023-12-20T10:37:28;99969.47;;;17.86;42.70
74343;BME280;62767;50.300;8.070;2023-12-20T10:39:54;99971.69;;;17.81;42.87
74343;BME280;62767;50.300;8.070;2023-12-20T10:42:26;99971.25;;;17.76;43.08
74343;BME280;62767;50.300;8.070;2023-12-20T10:44:52;99970.25;;;17.67;42.70
74343;BME280;62767;50.300;8.070;2023-12-20T10:47:20;99976.88;;;17.62;42.87
74343;BME280;62767;50.300;8.070;2023-12-20T10:49:46;99977.50;;;17.54;43.35
74343;BME280;62767;50.300;8.070;2023-12-20T10:52:13;99974.00;;;17.44;43.31
74343;BME280;62767;50.300;8.070;2023-12-20T10:54:40;99980.84;;;17.36;42.21
74343;BME280;62767;50.300;8.070;2023-12-20T10:57:07;99980.84;;;17.36;43.78
74343;BME280;62767;50.300;8.070;2023-12-20T10:59:36;99968.06;;;17.21;43.31
74343;BME280;62767;50.300;8.070;2023-12-20T11:02:03;99982.41;;;17.17;43.47
74343;BME280;62767;50.300;8.070;2023-12-20T11:04:44;99976.06;;;17.20;43.67
74343;BME280;62767;50.300;8.070;2023-12-20T11:09:43;99962.72;;;17.33;43.72
74343;BME280;62767;50.300;8.070;2023-12-20T11:12:16;99965.25;;;17.44;43.75
74343;BME280;62767;50.300;8.070;2023-12-20T11:14:49;99961.41;;;17.48;43.62
74343;BME280;62767;50.300;8.070;2023-12-20T11:17:16;99954.31;;;17.69;42.93
74343;BME280;62767;50.300;8.070;2023-12-20T11:20:03;99954.81;;;17.93;42.25
74343;BME280;62767;50.300;8.070;2023-12-20T11:22:31;99958.19;;;18.05;42.14
74343;BME280;62767;50.300;8.070;2023-12-20T11:27:30;99962.25;;;18.28;41.46
74343;BME280;62767;50.300;8.070;2023-12-20T11:29:57;99955.88;;;18.40;41.38
74343;BME280;62767;50.300;8.070;2023-12-20T11:37:22;99936.09;;;18.65;40.71
74343;BME280;62767;50.300;8.070;2023-12-20T11:40:17;99941.91;;;18.69;40.10
74343;BME280;62767;50.300;8.070;2023-12-20T11:42:45;99935.69;;;18.70;40.56
74343;BME280;62767;50.300;8.070;2023-12-20T11:45:15;99925.25;;;18.68;40.90
74343;BME280;62767;50.300;8.070;2023-12-20T11:47:43;99927.78;;;18.60;40.98
74343;BME280;62767;50.300;8.070;2023-12-20T11:50:11;99930.25;;;18.42;40.52
74343;BME280;62767;50.300;8.070;2023-12-20T11:52:37;99940.09;;;18.31;41.62
74343;BME280;62767;50.300;8.070;2023-12-20T11:55:04;99933.41;;;18.17;41.53
74343;BME280;62767;50.300;8.070;2023-12-20T11:57:32;99940.28;;;18.08;42.07
74343;BME280;62767;50.300;8.070;2023-12-20T11:59:58;99919.34;;;17.97;42.27
74343;BME280;62767;50.300;8.070;2023-12-20T12:02:24;99931.41;;;17.90;42.22
74343;BME280;62767;50.300;8.070;2023-12-20T12:04:50;99932.63;;;17.86;42.03
74343;BME280;62767;50.300;8.070;2023-12-20T12:07:17;99934.16;;;17.79;42.60
74343;BME280;62767;50.300;8.070;2023-12-20T12:09:43;99943.53;;;17.72;42.86
74343;BME280;62767;50.300;8.070;2023-12-20T12:12:11;99929.09;;;17.66;42.34
74343;BME280;62767;50.300;8.070;2023-12-20T12:14:38;99930.19;;;17.64;43.18
74343;BME280;62767;50.300;8.070;2023-12-20T12:17:04;99928.06;;;17.58;42.57
74343;BME280;62767;50.300;8.070;2023-12-20T12:19:30;99940.22;;;17.49;43.13
74343;BME280;62767;50.300;8.070;2023-12-20T12:22:08;99940.63;;;17.45;43.43
74343;BME280;62767;50.300;8.070;2023-12-20T12:24:42;99934.09;;;17.39;43.73
74343;BME280;62767;50.300;8.070;2023-12-20T12:27:08;99941.00;;;17.40;43.61
74343;BME280;62767;50.300;8.070;2023-12-20T12:29:35;99929.09;;;17.46;43.35
74343;BME280;62767;50.300;8.070;2023-12-20T12:32:05;99915.72;;;17.49;43.06
74343;BME280;62767;50.300;8.070;2023-12-20T12:34:33;99915.84;;;17.57;43.37
74343;BME280;62767;50.300;8.070;2023-12-20T12:37:00;99908.06;;;17.66;43.05
74343;BME280;62767;50.300;8.070;2023-12-20T12:39:26;99903.94;;;17.83;42.87
74343;BME280;62767;50.300;8.070;2023-12-20T12:41:55;99903.53;;;17.97;42.29
74343;BME280;62767;50.300;8.070;2023-12-20T12:44:21;99904.28;;;18.19;41.87
74343;BME280;62767;50.300;8.070;2023-12-20T12:46:49;99909.00;;;18.25;41.52
74343;BME280;62767;50.300;8.070;2023-12-20T12:49:17;99893.19;;;18.44;41.31
74343;BME280;62767;50.300;8.070;2023-12-20T12:51:43;99893.59;;;18.49;41.37
74343;BME280;62767;50.300;8.070;2023-12-20T12:54:09;99883.66;;;18.62;40.92
74343;BME280;62767;50.300;8.070;2023-12-20T12:56:36;99885.16;;;18.74;40.50
74343;BME280;62767;50.300;8.070;2023-12-20T12:59:02;99872.50;;;18.78;40.28
74343;BME280;62767;50.300;8.070;2023-12-20T13:01:28;99872.22;;;18.90;40.46
74343;BME280;62767;50.300;8.070;2023-12-20T13:03:54;99865.94;;;19.01;40.10
74343;BME280;62767;50.300;8.070;2023-12-20T13:06:20;99866.06;;;19.09;39.71